Terminal Aerodrome Forecast
Issued by NWS Buffalo, NY

Home | Current Version | Previous Version | Text Only | Print | Product List | Glossary On
Versions: 1 2 3 4 5 6 7 8 9 10 11 12 13 14 15 16 17 18 19 20 21 22 23 24 25 26 27
170
FTUS41 KBUF 060303 AAA
TAFART
TAF AMD
KART 060303Z 0603/0624 22004KT P6SM SCT050
     FM060900 23007KT P6SM VCSH OVC035
     FM061100 22008KT 3SM -SN OVC020
     FM061600 22013KT 5SM -SN OVC025
     FM061800 23015G21KT P6SM -SN OVC025
     FM062200 24014G20KT P6SM OVC040=

USA.gov is the U.S. government's official web portal to all federal, state and local government web resources and services.